createdAt,value
2022-10-30T00:01:51.244Z,76.30
2022-10-30T00:04:18.860Z,80.57
2022-10-30T00:06:46.398Z,80.70
2022-10-30T00:09:14.074Z,79.90
2022-10-30T00:11:43.496Z,80.70
2022-10-30T00:14:11.126Z,83.17
2022-10-30T00:16:38.656Z,79.47
2022-10-30T00:19:06.464Z,85.87
2022-10-30T00:21:34.021Z,88.10
2022-10-30T00:24:01.578Z,84.47
2022-10-30T00:26:29.094Z,85.67
2022-10-30T00:28:58.329Z,82.67
2022-10-30T00:31:26.096Z,86.57
2022-10-30T00:33:54.944Z,84.60
2022-10-30T00:36:23.662Z,87.10
2022-10-30T00:38:51.363Z,87.13
2022-10-30T00:41:21.769Z,86.70
2022-10-30T00:43:49.553Z,85.60
2022-10-30T00:46:26.236Z,84.87
2022-10-30T00:48:58.021Z,83.67
2022-10-30T00:51:26.223Z,84.00
2022-10-30T00:53:54.484Z,88.27
2022-10-30T00:56:23.884Z,85.50
2022-10-30T00:58:54.994Z,87.03
2022-10-30T01:01:27.567Z,82.27
2022-10-30T01:03:57.317Z,85.77
2022-10-30T01:06:25.985Z,85.70
2022-10-30T01:08:58.855Z,83.43
2022-10-30T01:11:27.820Z,83.57
2022-10-30T01:13:57.910Z,85.90
2022-10-30T01:16:54.419Z,81.37
2022-10-30T01:19:32.009Z,83.10
2022-10-30T01:22:12.568Z,90.13
2022-10-30T01:24:50.698Z,94.77
2022-10-30T01:27:33.864Z,90.87
2022-10-30T01:30:13.361Z,93.20
2022-10-30T01:33:01.113Z,97.97
2022-10-30T01:35:36.246Z,94.13
2022-10-30T01:38:10.969Z,92.70
2022-10-30T01:40:38.707Z,98.20
2022-10-30T01:43:06.239Z,95.97
2022-10-30T01:45:51.533Z,93.27
2022-10-30T01:48:48.904Z,96.77
2022-10-30T01:51:25.344Z,98.27
2022-10-30T01:54:03.836Z,99.53
2022-10-30T01:56:40.865Z,109.80
2022-10-30T01:59:14.457Z,110.13
2022-10-30T02:01:42.328Z,113.83
2022-10-30T02:04:14.162Z,107.40
2022-10-30T02:06:42.198Z,102.07
2022-10-30T02:09:09.813Z,140.10
2022-10-30T02:11:39.565Z,100.80
2022-10-30T02:14:08.599Z,112.53
2022-10-30T02:16:40.301Z,121.17
2022-10-30T02:19:07.868Z,149.87
2022-10-30T02:21:36.793Z,132.93
2022-10-30T02:24:04.339Z,104.73
2022-10-30T02:26:31.886Z,123.17
2022-10-30T02:28:59.399Z,109.17
2022-10-30T02:31:26.960Z,124.83
2022-10-30T02:33:54.485Z,106.80
2022-10-30T02:36:22.059Z,110.00
2022-10-30T02:38:50.921Z,107.20
2022-10-30T02:41:18.464Z,106.47
2022-10-30T02:43:46.025Z,114.33
2022-10-30T02:46:13.648Z,113.43
2022-10-30T02:48:41.178Z,116.53
2022-10-30T02:51:08.715Z,172.10
2022-10-30T02:53:36.278Z,165.13
2022-10-30T02:56:06.724Z,142.87
2022-10-30T02:58:34.328Z,118.73
2022-10-30T03:01:06.920Z,159.47
2022-10-30T03:03:34.686Z,127.13
2022-10-30T03:06:02.914Z,150.73
2022-10-30T03:08:30.460Z,166.03
2022-10-30T03:11:02.781Z,146.70
2022-10-30T03:13:33.366Z,124.47
2022-10-30T03:16:02.518Z,174.03
2022-10-30T03:18:30.132Z,112.40
2022-10-30T03:20:59.149Z,136.80
2022-10-30T03:23:27.135Z,115.40
2022-10-30T03:25:55.782Z,109.57
2022-10-30T03:28:24.332Z,129.23
2022-10-30T03:30:59.024Z,131.17
2022-10-30T03:33:26.549Z,108.47
2022-10-30T03:35:54.109Z,129.83
2022-10-30T03:38:21.673Z,116.97
2022-10-30T03:40:49.276Z,131.90
2022-10-30T03:43:17.109Z,114.57
2022-10-30T03:45:47.858Z,115.57
2022-10-30T03:48:17.601Z,111.47
2022-10-30T03:50:45.989Z,110.03
2022-10-30T03:53:14.126Z,124.63
2022-10-30T03:55:42.296Z,159.77
2022-10-30T03:58:09.975Z,144.47
2022-10-30T04:00:37.870Z,122.77
2022-10-30T04:03:07.998Z,157.47
2022-10-30T04:05:38.081Z,122.83
2022-10-30T04:08:08.371Z,123.93
2022-10-30T04:10:36.397Z,112.23
2022-10-30T04:13:06.182Z,121.00
2022-10-30T04:15:34.316Z,111.87
2022-10-30T04:18:02.628Z,147.57
2022-10-30T04:20:31.196Z,115.27
2022-10-30T04:23:03.184Z,195.70
2022-10-30T04:25:31.786Z,378.63
2022-10-30T04:27:59.792Z,187.63
2022-10-30T04:30:28.055Z,116.47
2022-10-30T04:32:57.205Z,198.63
2022-10-30T04:35:26.447Z,246.53
2022-10-30T04:37:55.018Z,125.10
2022-10-30T04:40:25.097Z,129.07
2022-10-30T04:42:52.981Z,125.50
2022-10-30T04:45:21.069Z,123.50
2022-10-30T04:47:48.835Z,127.27
2022-10-30T04:50:16.553Z,115.23
2022-10-30T04:52:44.107Z,111.03
2022-10-30T04:55:12.575Z,125.47
2022-10-30T04:57:41.581Z,108.23
2022-10-30T05:00:10.269Z,116.07
2022-10-30T05:02:38.093Z,112.63
2022-10-30T05:05:06.563Z,107.20
2022-10-30T05:07:34.098Z,127.13
2022-10-30T05:10:01.658Z,101.60
2022-10-30T05:12:29.179Z,111.13
2022-10-30T05:14:58.071Z,147.40
2022-10-30T05:17:25.732Z,122.23
2022-10-30T05:19:54.364Z,98.60
2022-10-30T05:22:21.883Z,95.83
2022-10-30T05:24:49.405Z,104.03
2022-10-30T05:27:17.173Z,100.87
2022-10-30T05:29:44.699Z,206.93
2022-10-30T05:34:42.078Z,99.93
2022-10-30T05:37:09.627Z,92.70
2022-10-30T05:39:37.259Z,113.97
2022-10-30T05:42:08.473Z,81.33
2022-10-30T05:44:59.338Z,79.80
2022-10-30T05:47:26.387Z,86.30
2022-10-30T05:49:53.948Z,88.43
2022-10-30T05:52:21.549Z,80.97
2022-10-30T05:54:49.178Z,84.03
2022-10-30T05:57:16.730Z,81.07
2022-10-30T05:59:44.286Z,86.00
2022-10-30T06:02:11.920Z,86.47
2022-10-30T06:04:40.856Z,90.83
2022-10-30T06:07:08.396Z,94.60
2022-10-30T06:09:35.933Z,91.20
2022-10-30T06:12:03.663Z,93.93
2022-10-30T06:14:31.319Z,93.47
2022-10-30T06:16:58.961Z,102.40
2022-10-30T06:19:26.759Z,96.40
2022-10-30T06:21:55.761Z,99.87
2022-10-30T06:24:23.279Z,99.87
2022-10-30T06:26:51.036Z,95.20
2022-10-30T06:29:18.586Z,97.10
2022-10-30T06:31:46.200Z,93.07
2022-10-30T06:34:13.781Z,98.60
2022-10-30T06:36:41.420Z,98.97
2022-10-30T06:39:10.420Z,99.10
2022-10-30T06:41:38.136Z,95.90
2022-10-30T06:44:06.057Z,100.10
2022-10-30T06:46:34.024Z,99.40
2022-10-30T06:49:01.797Z,95.93
2022-10-30T06:51:29.709Z,99.23
2022-10-30T06:53:57.333Z,94.30
2022-10-30T06:56:26.187Z,98.87
2022-10-30T06:58:53.711Z,95.77
2022-10-30T07:01:21.260Z,97.30
2022-10-30T07:03:48.812Z,98.57
2022-10-30T07:06:16.367Z,100.83
2022-10-30T07:08:44.047Z,107.03
2022-10-30T07:11:11.576Z,101.90
2022-10-30T07:13:40.457Z,104.40
2022-10-30T07:16:08.317Z,103.53
2022-10-30T07:18:35.952Z,106.60
2022-10-30T07:21:03.609Z,113.20
2022-10-30T07:23:31.143Z,112.63
2022-10-30T07:26:03.796Z,101.23
2022-10-30T07:28:32.406Z,105.43
2022-10-30T07:31:01.345Z,105.93
2022-10-30T07:33:28.861Z,109.80
2022-10-30T07:35:56.442Z,109.07
2022-10-30T07:38:24.053Z,113.80
2022-10-30T07:40:53.672Z,113.77
2022-10-30T07:43:21.240Z,114.50
2022-10-30T07:45:48.764Z,118.33
2022-10-30T07:48:17.685Z,114.07
2022-10-30T07:50:45.242Z,124.13
2022-10-30T07:53:12.767Z,122.23
2022-10-30T07:55:40.296Z,124.40
2022-10-30T07:58:07.809Z,127.23
2022-10-30T08:00:35.360Z,128.87
2022-10-30T08:03:03.141Z,120.13
2022-10-30T08:05:32.392Z,122.27
2022-10-30T08:08:00.210Z,123.00
2022-10-30T08:10:28.128Z,131.73
2022-10-30T08:12:55.712Z,128.57
2022-10-30T08:15:24.311Z,126.93
2022-10-30T08:17:52.354Z,133.43
2022-10-30T08:20:22.711Z,124.40
2022-10-30T08:22:52.777Z,131.57
2022-10-30T08:25:21.770Z,133.67
2022-10-30T08:27:54.903Z,124.03
2022-10-30T08:30:23.029Z,127.00
2022-10-30T08:32:50.584Z,124.33
2022-10-30T08:35:19.992Z,112.40
2022-10-30T08:37:48.079Z,108.80
2022-10-30T08:40:42.300Z,115.80
2022-10-30T08:43:11.273Z,104.40
2022-10-30T08:45:39.040Z,103.90
2022-10-30T08:48:07.360Z,100.27
2022-10-30T08:50:35.320Z,97.93
2022-10-30T08:53:04.406Z,86.07
2022-10-30T08:55:32.504Z,83.20
2022-10-30T08:58:01.949Z,77.00
2022-10-30T09:00:29.661Z,72.53
2022-10-30T09:02:57.944Z,66.07
2022-10-30T09:05:25.913Z,60.73
2022-10-30T09:07:57.940Z,61.33
2022-10-30T09:10:25.740Z,57.73
2022-10-30T09:12:55.891Z,59.53
2022-10-30T09:15:25.488Z,58.83
2022-10-30T09:17:57.712Z,58.70
2022-10-30T09:20:25.913Z,59.33
2022-10-30T09:22:53.452Z,59.63
2022-10-30T09:25:21.178Z,57.70
2022-10-30T09:27:48.979Z,58.37
2022-10-30T09:30:16.595Z,59.83
2022-10-30T09:32:45.498Z,58.67
2022-10-30T09:35:13.656Z,59.53
2022-10-30T09:37:41.241Z,57.60
2022-10-30T09:40:18.281Z,61.50
2022-10-30T09:42:48.324Z,61.40
2022-10-30T09:45:49.668Z,60.47
2022-10-30T09:48:48.500Z,61.63
2022-10-30T09:51:35.269Z,58.23
2022-10-30T09:54:11.822Z,58.33
2022-10-30T09:56:45.556Z,59.43
2022-10-30T09:59:25.729Z,58.10
2022-10-30T10:02:01.946Z,59.97
2022-10-30T10:04:39.185Z,58.70
2022-10-30T10:07:16.322Z,56.53
2022-10-30T10:09:45.477Z,61.47
2022-10-30T10:12:19.129Z,63.93
2022-10-30T10:14:49.046Z,58.33
2022-10-30T10:17:21.703Z,57.67
2022-10-30T10:19:56.639Z,58.37
2022-10-30T10:22:30.830Z,60.23
2022-10-30T10:24:58.414Z,60.73
2022-10-30T10:27:42.229Z,59.37
2022-10-30T10:30:14.744Z,59.53
2022-10-30T10:33:01.043Z,58.50
2022-10-30T10:35:54.932Z,57.27
2022-10-30T10:38:36.381Z,60.03
2022-10-30T10:41:18.644Z,58.63
2022-10-30T10:44:02.285Z,59.87
2022-10-30T10:46:48.137Z,58.00
2022-10-30T10:49:28.076Z,58.90
2022-10-30T10:52:01.672Z,58.23
2022-10-30T10:54:34.366Z,61.80
2022-10-30T10:57:05.469Z,59.10
2022-10-30T10:59:37.825Z,58.53
2022-10-30T11:02:29.950Z,60.83
2022-10-30T11:05:05.465Z,59.60
2022-10-30T11:07:38.081Z,60.60
2022-10-30T11:10:13.585Z,58.63
2022-10-30T11:12:41.164Z,60.97
2022-10-30T11:15:22.428Z,60.43
2022-10-30T11:17:57.127Z,61.40
2022-10-30T11:20:32.144Z,59.23
2022-10-30T11:23:01.244Z,60.47
2022-10-30T11:25:37.353Z,59.33
2022-10-30T11:28:06.884Z,61.37
2022-10-30T11:30:34.411Z,63.77
2022-10-30T11:33:22.925Z,62.40
2022-10-30T11:35:50.440Z,62.33
2022-10-30T11:38:21.824Z,61.53
2022-10-30T11:40:53.399Z,61.30
2022-10-30T11:43:25.436Z,61.30
2022-10-30T11:45:53.431Z,61.33
2022-10-30T11:48:24.599Z,58.10
2022-10-30T11:50:55.229Z,59.87
2022-10-30T11:53:31.049Z,63.23
2022-10-30T11:55:59.758Z,60.47
2022-10-30T11:58:31.953Z,59.67
2022-10-30T12:01:02.340Z,61.57
2022-10-30T12:03:34.824Z,61.03
2022-10-30T12:06:11.006Z,59.53
2022-10-30T12:08:39.915Z,56.30
2022-10-30T12:11:07.897Z,59.10
2022-10-30T12:13:40.154Z,58.13
2022-10-30T12:16:13.957Z,56.93
2022-10-30T12:18:42.686Z,54.60
2022-10-30T12:21:12.004Z,57.77
2022-10-30T12:23:41.229Z,55.30
2022-10-30T12:26:12.379Z,55.77
2022-10-30T12:28:40.550Z,52.53
2022-10-30T12:31:15.113Z,52.23
2022-10-30T12:33:49.935Z,52.33
2022-10-30T12:36:21.618Z,52.90
2022-10-30T12:38:53.000Z,55.53
2022-10-30T12:41:25.188Z,55.30
2022-10-30T12:44:00.397Z,53.20
2022-10-30T12:46:34.317Z,54.33
2022-10-30T12:49:11.727Z,51.67
2022-10-30T12:51:47.544Z,54.93
2022-10-30T12:54:25.857Z,53.77
2022-10-30T12:57:03.178Z,53.93
2022-10-30T12:59:37.820Z,52.97
2022-10-30T13:02:15.012Z,52.77
2022-10-30T13:04:49.225Z,52.80
2022-10-30T13:07:23.586Z,54.57
2022-10-30T13:10:03.143Z,51.03
2022-10-30T13:12:36.053Z,51.80
2022-10-30T13:15:07.396Z,52.50
2022-10-30T13:17:35.022Z,52.87
2022-10-30T13:20:02.607Z,50.33
2022-10-30T13:22:35.453Z,53.10
2022-10-30T13:25:13.032Z,53.70
2022-10-30T13:27:46.957Z,50.90
2022-10-30T13:30:18.408Z,51.20
2022-10-30T13:33:00.501Z,51.87
2022-10-30T13:35:36.834Z,50.77
2022-10-30T13:38:17.990Z,53.40
2022-10-30T13:40:51.919Z,51.10
2022-10-30T13:43:26.440Z,53.67
2022-10-30T13:46:22.132Z,50.70
2022-10-30T13:49:03.632Z,54.60
2022-10-30T13:51:36.416Z,50.80
2022-10-30T13:54:11.281Z,50.50
2022-10-30T13:56:41.627Z,50.37
2022-10-30T13:59:23.063Z,52.90
2022-10-30T14:02:00.722Z,52.93
2022-10-30T14:04:37.631Z,54.73
2022-10-30T14:07:19.968Z,54.50
2022-10-30T14:09:57.916Z,52.60
2022-10-30T14:12:46.900Z,52.47
2022-10-30T14:15:27.457Z,52.93
2022-10-30T14:18:25.444Z,52.20
2022-10-30T14:20:54.344Z,50.77
2022-10-30T14:23:23.990Z,51.97
2022-10-30T14:26:14.001Z,51.60
2022-10-30T14:28:45.143Z,51.37
2022-10-30T14:31:16.535Z,51.30
2022-10-30T14:33:49.915Z,53.57
2022-10-30T14:36:20.890Z,52.50
2022-10-30T14:39:00.897Z,52.70
2022-10-30T14:41:46.184Z,55.20
2022-10-30T14:44:25.596Z,53.37
2022-10-30T14:47:16.823Z,54.40
2022-10-30T14:49:48.599Z,51.47
2022-10-30T14:52:23.112Z,54.83
2022-10-30T14:54:59.969Z,53.70
2022-10-30T14:57:48.167Z,52.73
2022-10-30T15:00:41.523Z,54.50
2022-10-30T15:03:18.468Z,55.07
2022-10-30T15:05:51.584Z,55.23
2022-10-30T15:08:34.159Z,55.20
2022-10-30T15:11:18.116Z,55.00
2022-10-30T15:13:49.626Z,56.27
2022-10-30T15:16:21.929Z,57.37
2022-10-30T15:18:55.799Z,58.67
2022-10-30T15:21:28.931Z,56.93
2022-10-30T15:24:00.589Z,60.20
2022-10-30T15:26:35.626Z,57.17
2022-10-30T15:29:03.937Z,60.50
2022-10-30T15:31:33.223Z,59.30
2022-10-30T15:34:00.810Z,61.63
2022-10-30T15:36:30.552Z,63.43
2022-10-30T15:39:06.237Z,62.00
2022-10-30T15:41:37.580Z,62.97
2022-10-30T15:44:05.576Z,66.10
2022-10-30T15:46:34.629Z,64.47
2022-10-30T15:49:02.219Z,68.17
2022-10-30T15:51:29.820Z,71.43
2022-10-30T15:53:59.411Z,75.60
2022-10-30T15:56:31.730Z,83.90
2022-10-30T15:59:01.774Z,87.83
2022-10-30T16:01:32.835Z,88.10
2022-10-30T16:04:02.072Z,90.00
2022-10-30T16:06:31.709Z,94.83
2022-10-30T16:08:59.628Z,94.10
2022-10-30T16:11:28.133Z,99.73
2022-10-30T16:13:55.659Z,100.33
2022-10-30T16:16:27.259Z,101.43
2022-10-30T16:18:58.931Z,102.33
2022-10-30T16:21:29.602Z,106.03
2022-10-30T16:24:00.811Z,110.43
2022-10-30T16:26:32.676Z,112.17
2022-10-30T16:29:02.003Z,111.10
2022-10-30T16:31:34.472Z,114.37
2022-10-30T16:34:03.840Z,116.87
2022-10-30T16:36:34.643Z,117.80
2022-10-30T16:39:02.641Z,120.27
2022-10-30T16:41:32.339Z,123.30
2022-10-30T16:44:15.295Z,125.93
2022-10-30T16:46:48.427Z,124.10
2022-10-30T16:49:19.201Z,136.77
2022-10-30T16:51:51.904Z,129.83
2022-10-30T16:54:22.229Z,135.40
2022-10-30T16:56:53.857Z,134.97
2022-10-30T16:59:27.901Z,140.40
2022-10-30T17:02:00.218Z,147.23
2022-10-30T17:04:30.238Z,143.97
2022-10-30T17:07:18.607Z,147.87
2022-10-30T17:09:47.840Z,151.30
2022-10-30T17:12:19.572Z,148.03
2022-10-30T17:14:53.385Z,152.90
2022-10-30T17:17:28.974Z,149.93
2022-10-30T17:20:01.724Z,151.60
2022-10-30T17:22:31.668Z,151.50
2022-10-30T17:25:00.419Z,152.13
2022-10-30T17:27:46.584Z,147.73
2022-10-30T17:30:38.584Z,144.80
2022-10-30T17:33:31.341Z,147.10
2022-10-30T17:35:59.110Z,156.53
2022-10-30T17:38:28.322Z,163.87
2022-10-30T17:40:55.868Z,160.00
2022-10-30T17:43:27.260Z,160.20
2022-10-30T17:45:54.791Z,166.20
2022-10-30T17:48:26.274Z,162.03
2022-10-30T17:50:53.934Z,160.77
2022-10-30T17:53:23.870Z,164.27
2022-10-30T17:55:58.888Z,166.70
2022-10-30T17:58:26.492Z,167.20
2022-10-30T18:00:54.080Z,167.17
2022-10-30T18:03:21.629Z,168.97
2022-10-30T18:05:49.638Z,169.43
2022-10-30T18:08:17.173Z,164.70
2022-10-30T18:10:44.760Z,167.10
2022-10-30T18:13:15.127Z,169.40
2022-10-30T18:15:44.958Z,169.90
2022-10-30T18:18:12.741Z,165.30
2022-10-30T18:20:40.458Z,169.93
2022-10-30T18:23:38.859Z,183.47
2022-10-30T18:26:07.184Z,167.93
2022-10-30T18:28:36.076Z,161.47
2022-10-30T18:31:03.977Z,162.17
2022-10-30T18:33:31.534Z,164.40
2022-10-30T18:36:00.022Z,160.50
2022-10-30T18:38:27.564Z,164.93
2022-10-30T18:40:55.136Z,162.80
2022-10-30T18:43:22.653Z,163.87
2022-10-30T18:45:51.531Z,157.73
2022-10-30T18:48:19.057Z,159.47
2022-10-30T18:50:46.616Z,156.27
2022-10-30T18:53:17.281Z,164.40
2022-10-30T18:55:45.216Z,158.47
2022-10-30T18:58:13.061Z,158.60
2022-10-30T19:01:09.977Z,154.60
2022-10-30T19:03:30.420Z,159.40
2022-10-30T19:05:58.045Z,163.83
2022-10-30T19:08:25.588Z,173.37
2022-10-30T19:10:56.613Z,149.70
2022-10-30T19:13:24.579Z,147.27
2022-10-30T19:15:59.860Z,149.43
2022-10-30T19:18:28.767Z,149.57
2022-10-30T19:21:04.591Z,151.20
2022-10-30T19:23:34.357Z,150.63
2022-10-30T19:26:01.945Z,156.17
2022-10-30T19:28:30.721Z,157.90
2022-10-30T19:30:58.306Z,159.03
2022-10-30T19:33:28.354Z,158.23
2022-10-30T19:36:00.863Z,159.70
2022-10-30T19:38:30.068Z,157.07
2022-10-30T19:40:57.904Z,154.40
2022-10-30T19:43:25.560Z,153.37
2022-10-30T19:45:56.670Z,146.83
2022-10-30T19:48:55.411Z,148.40
2022-10-30T19:51:13.406Z,158.63
2022-10-30T19:53:41.578Z,155.70
2022-10-30T19:56:11.969Z,148.67
2022-10-30T19:58:39.507Z,155.50
2022-10-30T20:01:07.126Z,149.13
2022-10-30T20:03:34.725Z,147.97
2022-10-30T20:06:02.256Z,140.80
2022-10-30T20:08:31.656Z,137.70
2022-10-30T20:11:00.797Z,155.03
2022-10-30T20:13:29.961Z,133.83
2022-10-30T20:16:00.666Z,137.87
2022-10-30T20:18:30.599Z,126.67
2022-10-30T20:21:00.171Z,134.97
2022-10-30T20:23:28.603Z,137.63
2022-10-30T20:26:00.442Z,143.97
2022-10-30T20:28:30.950Z,156.77
2022-10-30T20:30:58.726Z,146.37
2022-10-30T20:33:27.151Z,154.13
2022-10-30T20:35:55.579Z,149.30
2022-10-30T20:38:26.053Z,193.10
2022-10-30T20:40:54.196Z,133.70
2022-10-30T20:43:28.214Z,165.40
2022-10-30T20:45:55.755Z,259.40
2022-10-30T20:48:23.272Z,128.47
2022-10-30T20:50:53.026Z,145.77
2022-10-30T20:53:20.628Z,236.67
2022-10-30T20:55:48.203Z,140.60
2022-10-30T20:58:16.034Z,140.23
2022-10-30T21:00:44.977Z,155.23
2022-10-30T21:03:14.269Z,137.33
2022-10-30T21:05:44.732Z,131.90
2022-10-30T21:08:12.880Z,139.23
2022-10-30T21:10:40.589Z,140.87
2022-10-30T21:13:09.703Z,151.40
2022-10-30T21:15:39.360Z,129.97
2022-10-30T21:18:08.343Z,167.30
2022-10-30T21:20:36.863Z,129.20
2022-10-30T21:23:04.756Z,148.80
2022-10-30T21:25:32.860Z,130.20
2022-10-30T21:28:00.615Z,129.00
2022-10-30T21:30:28.272Z,161.83
2022-10-30T21:32:56.074Z,121.80
2022-10-30T21:35:25.047Z,123.77
2022-10-30T21:37:52.609Z,121.10
2022-10-30T21:40:20.142Z,142.30
2022-10-30T21:42:48.821Z,166.07
2022-10-30T21:45:16.589Z,132.53
2022-10-30T21:47:44.131Z,133.57
2022-10-30T21:50:12.604Z,129.57
2022-10-30T21:52:41.856Z,128.60
2022-10-30T21:55:10.077Z,136.17
2022-10-30T21:57:37.583Z,127.47
2022-10-30T22:00:07.331Z,202.77
2022-10-30T22:02:35.189Z,149.33
2022-10-30T22:05:02.738Z,150.73
2022-10-30T22:07:30.318Z,249.37
2022-10-30T22:09:59.195Z,238.87
2022-10-30T22:12:26.850Z,134.80
2022-10-30T22:14:54.391Z,143.00
2022-10-30T22:17:22.053Z,192.87
2022-10-30T22:19:49.926Z,138.00
2022-10-30T22:22:17.439Z,133.90
2022-10-30T22:24:44.977Z,178.87
2022-10-30T22:27:13.844Z,141.67
2022-10-30T22:29:41.385Z,139.97
2022-10-30T22:32:09.024Z,129.40
2022-10-30T22:34:36.562Z,162.03
2022-10-30T22:37:04.098Z,244.30
2022-10-30T22:39:31.673Z,343.10
2022-10-30T22:41:59.304Z,214.77
2022-10-30T22:44:28.544Z,182.63
2022-10-30T22:46:56.060Z,163.97
2022-10-30T22:49:23.604Z,387.53
2022-10-30T22:51:51.115Z,170.00
2022-10-30T22:54:18.644Z,387.27
2022-10-30T22:56:46.178Z,155.47
2022-10-30T22:59:14.910Z,157.90
2022-10-30T23:01:44.201Z,154.00
2022-10-30T23:04:14.017Z,216.67
2022-10-30T23:06:41.662Z,202.33
2022-10-30T23:09:12.827Z,163.57
2022-10-30T23:11:40.340Z,174.33
2022-10-30T23:14:07.893Z,223.67
2022-10-30T23:16:35.458Z,345.43
2022-10-30T23:19:04.623Z,195.90
2022-10-30T23:21:32.628Z,179.53
2022-10-30T23:24:02.527Z,179.07
2022-10-30T23:26:32.192Z,231.90
2022-10-30T23:29:01.400Z,163.97
2022-10-30T23:31:30.757Z,176.73
2022-10-30T23:34:00.031Z,189.03
2022-10-30T23:36:29.455Z,180.97
2022-10-30T23:38:58.416Z,166.47
2022-10-30T23:41:28.463Z,156.63
2022-10-30T23:43:57.147Z,160.97
2022-10-30T23:46:25.008Z,177.03
2022-10-30T23:48:52.584Z,196.23
2022-10-30T23:51:20.533Z,168.10
2022-10-30T23:53:49.785Z,207.67
2022-10-30T23:56:17.643Z,243.97
2022-10-30T23:58:45.908Z,230.93
